Time;durP1;ratioP1;P1;durP2;ratioP2;P2;SDS_P1;SDS_P2;PMS_P1;PMS_P2;Temp;Humidity;BMP_temperature;BMP_pressure;BME280_temperature;BME280_humidity;BME280_pressure;Samples;Min_cycle;Max_cycle;Signal;HPM_P1;HPM_P2
2022/04/22 00:01:51;;;;;;;14.38;10.50;;;12.20;99.90;;;;;;6183480;23;20001;-83
2022/04/22 00:04:16;;;;;;;16.70;11.45;;;12.20;99.90;;;;;;6183484;23;20343;-82
2022/04/22 00:06:42;;;;;;;16.73;10.38;;;12.20;99.90;;;;;;6183387;23;20106;-82
2022/04/22 00:09:08;;;;;;;16.92;10.68;;;12.20;99.90;;;;;;6183690;23;20392;-83
2022/04/22 00:11:34;;;;;;;15.32;10.68;;;12.20;99.90;;;;;;6183683;23;20444;-83
2022/04/22 00:14:02;;;;;;;17.88;11.18;;;12.10;99.90;;;;;;6183923;23;20011;-83
2022/04/22 00:16:30;;;;;;;15.68;11.35;;;12.00;99.90;;;;;;6183773;23;20008;-84
2022/04/22 00:18:56;;;;;;;20.65;11.45;;;12.10;99.90;;;;;;6183816;23;20005;-84
2022/04/22 00:21:22;;;;;;;18.10;11.13;;;12.10;99.90;;;;;;6183660;23;20010;-84
2022/04/22 00:23:49;;;;;;;13.48;10.70;;;12.10;99.90;;;;;;6183412;23;20020;-84
2022/04/22 00:26:18;;;;;;;21.23;12.82;;;12.10;99.90;;;;;;6157253;23;20084;-84
2022/04/22 00:28:44;;;;;;;16.05;11.45;;;12.10;99.90;;;;;;6183844;23;20033;-84
2022/04/22 00:31:10;;;;;;;16.75;10.80;;;12.00;99.90;;;;;;6183515;23;20337;-83
2022/04/22 00:33:37;;;;;;;16.15;11.25;;;12.00;99.90;;;;;;6157201;23;20012;-83
2022/04/22 00:36:03;;;;;;;16.83;11.23;;;12.00;99.90;;;;;;6157220;23;20384;-83
2022/04/22 00:38:29;;;;;;;19.67;12.50;;;12.00;99.90;;;;;;6156962;23;20005;-84
2022/04/22 00:40:55;;;;;;;15.38;11.60;;;12.00;99.90;;;;;;6183237;23;20348;-84
2022/04/22 00:43:22;;;;;;;16.73;11.65;;;12.00;99.90;;;;;;6157079;23;20005;-84
2022/04/22 00:45:49;;;;;;;18.48;12.52;;;11.90;99.90;;;;;;6183468;23;20048;-83
2022/04/22 00:48:16;;;;;;;19.65;13.52;;;11.90;99.90;;;;;;6183421;23;20009;-83
2022/04/22 00:50:42;;;;;;;17.33;12.45;;;11.80;99.90;;;;;;6183308;23;20008;-83
2022/04/22 00:53:08;;;;;;;19.55;13.13;;;11.90;99.90;;;;;;6183329;23;20441;-82
2022/04/22 00:55:37;;;;;;;16.27;12.48;;;11.80;99.90;;;;;;6183560;23;20012;-83
2022/04/22 00:58:03;;;;;;;18.45;12.70;;;11.90;99.90;;;;;;6183462;23;20005;-83
2022/04/22 01:00:29;;;;;;;22.50;13.52;;;11.90;99.90;;;;;;6183429;23;20001;-82
2022/04/22 01:02:55;;;;;;;20.10;14.25;;;11.90;99.90;;;;;;6184225;23;20306;-83
2022/04/22 01:10:53;;;;;;;20.92;13.82;;;11.90;99.90;;;;;;6184961;23;20012;-82
2022/04/22 01:13:19;;;;;;;20.27;13.48;;;11.80;99.90;;;;;;6185282;23;20004;-83
2022/04/22 01:15:46;;;;;;;26.13;14.68;;;11.90;99.90;;;;;;6158588;23;20068;-82
2022/04/22 01:18:13;;;;;;;19.50;13.18;;;11.80;99.90;;;;;;6158898;23;20005;-82
2022/04/22 01:20:39;;;;;;;22.50;14.43;;;11.80;99.90;;;;;;6158545;23;20349;-82
2022/04/22 01:23:04;;;;;;;20.42;14.32;;;11.80;99.90;;;;;;6185003;23;20009;-82
2022/04/22 01:25:30;;;;;;;20.88;14.52;;;11.80;99.90;;;;;;6158639;23;20397;-82
2022/04/22 01:27:57;;;;;;;20.50;13.40;;;11.90;99.90;;;;;;6185060;23;20024;-82
2022/04/22 01:30:24;;;;;;;19.02;13.27;;;11.90;99.90;;;;;;6184963;23;20084;-82
2022/04/22 01:32:51;;;;;;;19.58;13.88;;;11.90;99.90;;;;;;6184926;23;20012;-83
2022/04/22 01:35:17;;;;;;;18.95;13.40;;;11.90;99.90;;;;;;6184784;23;20009;-82
2022/04/22 01:37:43;;;;;;;18.15;14.10;;;11.80;99.90;;;;;;6184942;23;20261;-82
2022/04/22 01:40:10;;;;;;;20.95;14.48;;;11.80;99.90;;;;;;6184758;23;20024;-82
2022/04/22 01:42:36;;;;;;;18.90;13.25;;;11.80;99.90;;;;;;6184615;23;20001;-82
2022/04/22 01:45:03;;;;;;;18.00;14.15;;;11.70;99.90;;;;;;6184809;23;20001;-82
2022/04/22 01:47:29;;;;;;;19.40;13.25;;;11.70;99.90;;;;;;6184806;23;20001;-82
2022/04/22 01:49:55;;;;;;;19.73;13.02;;;11.70;99.90;;;;;;6184965;23;20023;-82
2022/04/22 01:52:22;;;;;;;19.75;14.18;;;11.70;99.90;;;;;;6184918;23;19997;-82
2022/04/22 01:54:51;;;;;;;19.25;14.07;;;11.80;99.90;;;;;;6184838;23;19997;-82
2022/04/22 01:57:17;;;;;;;23.52;15.48;;;11.70;99.90;;;;;;6184720;23;20001;-81
2022/04/22 01:59:44;;;;;;;19.73;13.82;;;11.70;99.90;;;;;;6184486;23;19997;-82
2022/04/22 02:02:13;;;;;;;21.48;14.45;;;11.80;99.90;;;;;;6184781;23;20021;-81
2022/04/22 02:04:39;;;;;;;20.63;14.40;;;11.70;99.90;;;;;;6184823;23;20001;-82
2022/04/22 02:07:05;;;;;;;20.63;13.88;;;11.80;99.90;;;;;;6184665;23;20385;-81
2022/04/22 02:09:31;;;;;;;20.33;14.25;;;11.80;99.90;;;;;;6184703;23;20004;-81
2022/04/22 02:11:57;;;;;;;24.20;14.15;;;11.90;99.90;;;;;;6184625;23;20001;-82
2022/04/22 02:14:23;;;;;;;20.90;15.35;;;11.80;99.90;;;;;;6184272;23;20001;-81
2022/04/22 02:16:49;;;;;;;19.73;14.57;;;11.80;99.90;;;;;;6158437;23;20099;-82
2022/04/22 02:19:14;;;;;;;23.45;15.88;;;11.70;99.90;;;;;;6184712;23;20299;-81
2022/04/22 02:21:41;;;;;;;20.95;14.23;;;11.80;99.90;;;;;;6183966;23;20001;-81
2022/04/22 02:24:07;;;;;;;24.83;15.32;;;11.70;99.90;;;;;;6184449;23;20042;-81
2022/04/22 02:28:31;;;;;;;22.55;15.52;;;11.70;99.90;;;;;;6184636;23;19997;-81
2022/04/22 02:29:19;;;;;;;20.83;15.50;;;11.70;99.90;;;;;;6184247;23;20080;-81
2022/04/22 02:31:45;;;;;;;23.77;14.75;;;11.70;99.90;;;;;;6184356;23;20337;-81
2022/04/22 02:34:11;;;;;;;21.20;14.20;;;11.80;99.90;;;;;;6184344;23;20076;-81
2022/04/22 02:36:37;;;;;;;19.63;14.10;;;11.80;99.90;;;;;;6184517;23;20024;-81
2022/04/22 02:39:02;;;;;;;19.83;14.90;;;11.80;99.90;;;;;;6158147;23;20012;-81
2022/04/22 02:46:56;;;;;;;22.67;15.02;;;11.70;99.90;;;;;;6184455;23;20068;-82
2022/04/22 02:49:22;;;;;;;24.35;16.60;;;11.70;99.90;;;;;;6184424;23;20025;-81
2022/04/22 02:51:48;;;;;;;23.10;14.45;;;11.60;99.90;;;;;;6157841;23;20012;-81
2022/04/22 02:54:14;;;;;;;24.50;15.48;;;11.60;99.90;;;;;;6184005;23;20016;-81
2022/04/22 02:56:39;;;;;;;28.80;16.13;;;11.60;99.90;;;;;;6184147;23;20081;-81
2022/04/22 02:59:06;;;;;;;24.75;16.17;;;11.60;99.90;;;;;;6184147;23;20029;-81
2022/04/22 03:01:33;;;;;;;22.77;16.20;;;11.60;99.90;;;;;;6183774;23;20594;-81
2022/04/22 03:03:59;;;;;;;30.63;16.83;;;11.70;99.90;;;;;;6184207;23;20335;-81
2022/04/22 03:06:26;;;;;;;26.83;17.55;;;11.60;99.90;;;;;;6184121;23;20005;-81
2022/04/22 03:08:52;;;;;;;27.77;16.55;;;11.60;99.90;;;;;;6183617;23;20056;-81
2022/04/22 03:11:21;;;;;;;24.33;16.92;;;11.60;99.90;;;;;;6157497;23;20016;-81
2022/04/22 03:13:51;;;;;;;26.45;17.02;;;11.60;99.90;;;;;;6183951;23;20012;-81
2022/04/22 03:16:24;;;;;;;25.95;16.92;;;11.60;99.90;;;;;;6157359;23;20138;-81
2022/04/22 03:18:50;;;;;;;24.85;16.83;;;11.60;99.90;;;;;;6157456;23;20425;-81
2022/04/22 03:21:16;;;;;;;24.90;17.23;;;11.60;99.90;;;;;;6157124;23;20005;-81
2022/04/22 03:23:42;;;;;;;28.02;16.83;;;11.70;99.90;;;;;;6183659;23;20013;-81
2022/04/22 03:26:07;;;;;;;27.30;17.67;;;11.60;99.90;;;;;;6156886;23;20005;-81
2022/04/22 03:28:33;;;;;;;25.58;16.35;;;11.60;99.90;;;;;;6183895;23;20029;-81
2022/04/22 03:30:59;;;;;;;24.58;16.15;;;11.70;99.90;;;;;;6183649;23;20004;-81
2022/04/22 03:33:25;;;;;;;27.95;16.63;;;11.70;99.90;;;;;;6157409;23;20005;-81
2022/04/22 03:35:51;;;;;;;24.40;15.68;;;11.60;99.90;;;;;;6183902;23;20001;-81
2022/04/22 03:38:20;;;;;;;20.63;15.18;;;11.60;99.90;;;;;;6157495;23;20016;-81
2022/04/22 03:40:47;;;;;;;21.45;14.98;;;11.70;99.90;;;;;;6183649;23;20028;-81
2022/04/22 03:43:14;;;;;;;23.50;14.70;;;11.70;99.90;;;;;;6157380;23;20001;-81
2022/04/22 03:45:41;;;;;;;21.55;15.13;;;11.70;99.90;;;;;;6183811;23;20315;-81
2022/04/22 03:48:08;;;;;;;23.48;15.68;;;11.70;99.90;;;;;;6183539;23;20067;-81
2022/04/22 03:50:34;;;;;;;22.25;14.93;;;11.70;99.90;;;;;;6183811;23;19997;-81
2022/04/22 03:53:00;;;;;;;21.80;14.30;;;11.70;99.90;;;;;;6157398;23;20028;-81
2022/04/22 03:55:26;;;;;;;21.58;13.40;;;11.70;99.90;;;;;;6156919;23;20318;-81
2022/04/22 03:58:10;;;;;;;19.52;12.07;;;11.70;99.90;;;;;;6183563;23;20436;-81
2022/04/22 04:00:42;;;;;;;19.05;13.73;;;11.70;99.90;;;;;;6156847;23;20005;-81
2022/04/22 04:03:15;;;;;;;;;;;11.80;99.90;;;;;;6157781;23;20033;-81
2022/04/22 04:05:49;;;;;;;22.38;14.82;;;11.70;99.90;;;;;;6183360;23;19907;-81
2022/04/22 04:08:16;;;;;;;17.65;12.68;;;11.80;99.90;;;;;;6183615;23;19997;-81
2022/04/22 04:16:13;;;;;;;15.13;10.80;;;11.70;99.90;;;;;;6183640;23;20080;-81
2022/04/22 04:18:39;;;;;;;14.60;11.02;;;11.70;99.90;;;;;;6157181;23;20005;-81
2022/04/22 04:23:52;;;;;;;15.25;10.65;;;11.70;99.90;;;;;;6183340;23;20052;-81
2022/04/22 04:26:21;;;;;;;15.05;10.45;;;11.70;99.90;;;;;;6183343;23;20011;-81
2022/04/22 04:28:48;;;;;;;14.60;10.40;;;11.70;99.90;;;;;;6183415;23;20053;-81
2022/04/22 04:31:15;;;;;;;12.93;10.13;;;11.70;99.90;;;;;;6183314;23;20568;-81
2022/04/22 04:33:41;;;;;;;12.85;9.85;;;11.80;99.90;;;;;;6183299;23;20084;-81
2022/04/22 04:36:10;;;;;;;11.70;8.85;;;11.80;99.90;;;;;;6157317;23;20028;-81
2022/04/22 04:38:42;;;;;;;13.82;9.18;;;11.70;99.90;;;;;;6185531;23;20008;-81
2022/04/22 04:41:08;;;;;;;12.05;9.13;;;11.70;99.90;;;;;;6185186;23;20001;-81
2022/04/22 04:43:40;;;;;;;10.38;8.00;;;11.60;99.90;;;;;;6185485;23;20005;-81
2022/04/22 04:46:06;;;;;;;9.35;7.07;;;11.60;99.90;;;;;;6185528;23;20004;-81
2022/04/22 04:48:34;;;;;;;8.18;6.68;;;11.60;99.90;;;;;;6185329;23;20001;-81
2022/04/22 04:51:00;;;;;;;8.05;6.75;;;11.60;99.90;;;;;;6185299;23;20029;-81
2022/04/22 04:53:26;;;;;;;8.93;6.53;;;11.60;99.90;;;;;;6185431;23;20024;-81
2022/04/22 04:55:53;;;;;;;15.25;10.57;;;11.70;99.90;;;;;;6185231;23;20012;-81
2022/04/22 04:58:21;;;;;;;15.98;12.18;;;11.60;99.90;;;;;;6185327;23;20209;-81
2022/04/22 05:00:48;;;;;;;21.13;14.15;;;11.60;99.90;;;;;;6185071;23;20011;-81
2022/04/22 05:03:14;;;;;;;17.63;11.55;;;11.60;99.90;;;;;;6158640;23;20075;-81
2022/04/22 05:05:39;;;;;;;21.02;13.60;;;11.60;99.90;;;;;;6158762;23;20433;-81
2022/04/22 05:08:06;;;;;;;20.38;14.10;;;11.60;99.90;;;;;;6184858;23;20456;-81
2022/04/22 05:10:33;;;;;;;20.88;14.10;;;11.70;99.90;;;;;;6185045;23;20001;-80
2022/04/22 05:13:03;;;;;;;26.75;16.42;;;11.70;99.90;;;;;;6158705;23;20009;-81
2022/04/22 05:15:30;;;;;;;21.58;13.93;;;11.60;99.90;;;;;;6185047;23;20005;-81
2022/04/22 05:17:58;;;;;;;24.92;15.95;;;11.60;99.90;;;;;;6184866;23;20068;-81
2022/04/22 05:20:27;;;;;;;20.05;14.75;;;11.70;99.90;;;;;;6184977;23;20005;-81
2022/04/22 05:22:54;;;;;;;21.00;14.35;;;11.80;99.90;;;;;;6158462;23;20418;-81
2022/04/22 05:25:20;;;;;;;20.88;14.25;;;11.80;99.90;;;;;;6158295;23;20008;-81
2022/04/22 05:27:47;;;;;;;22.48;15.02;;;11.80;99.90;;;;;;6158567;23;20005;-81
2022/04/22 05:32:58;;;;;;;19.10;13.43;;;11.80;99.90;;;;;;6184948;23;20356;-81
2022/04/22 05:35:28;;;;;;;18.70;13.32;;;11.80;99.90;;;;;;6184921;23;20009;-81
2022/04/22 05:38:05;;;;;;;19.05;12.98;;;11.80;99.90;;;;;;6184776;23;20003;-81
2022/04/22 05:40:46;;;;;;;18.48;12.23;;;11.80;99.90;;;;;;6158430;23;20013;-81
2022/04/22 05:43:12;;;;;;;15.75;12.15;;;11.80;99.90;;;;;;6184866;23;20025;-81
2022/04/22 05:45:38;;;;;;;14.05;10.35;;;11.80;99.90;;;;;;6185081;23;20012;-81
2022/04/22 05:48:04;;;;;;;11.35;9.23;;;11.90;99.90;;;;;;6184413;23;20133;-81
2022/04/22 05:50:30;;;;;;;10.13;7.18;;;11.90;99.90;;;;;;6184541;23;20001;-81
2022/04/22 05:52:56;;;;;;;5.93;5.25;;;11.90;99.90;;;;;;6158290;23;20016;-81
2022/04/22 05:55:24;;;;;;;7.28;5.22;;;11.90;99.90;;;;;;6184465;23;20414;-81
2022/04/22 05:57:52;;;;;;;5.88;4.95;;;11.90;99.90;;;;;;6184388;23;20001;-81
2022/04/22 06:00:21;;;;;;;5.10;4.63;;;11.90;99.90;;;;;;6184419;23;20329;-81
2022/04/22 06:02:47;;;;;;;5.03;3.88;;;11.90;99.90;;;;;;6184855;23;20341;-81
2022/04/22 06:05:15;;;;;;;4.68;3.95;;;11.90;99.90;;;;;;6184615;23;20005;-81
2022/04/22 06:07:42;;;;;;;4.32;3.97;;;11.90;99.90;;;;;;6158073;23;20337;-81
2022/04/22 06:12:54;;;;;;;20.00;14.40;;;12.00;99.90;;;;;;6184780;23;20076;-81
2022/04/22 06:15:20;;;;;;;21.92;14.75;;;11.90;99.90;;;;;;6184481;23;20361;-81
2022/04/22 06:17:46;;;;;;;26.90;17.85;;;11.80;99.90;;;;;;6184960;23;20003;-81
2022/04/22 06:20:12;;;;;;;29.70;17.60;;;11.70;99.90;;;;;;6184330;23;20001;-81
2022/04/22 06:22:38;;;;;;;27.83;16.75;;;11.60;99.90;;;;;;6184183;23;20404;-81
2022/04/22 06:25:05;;;;;;;30.27;18.38;;;11.60;99.90;;;;;;6184404;23;19997;-81
2022/04/22 06:27:37;;;;;;;26.45;18.08;;;11.70;99.90;;;;;;6184565;23;20057;-81
2022/04/22 06:30:11;;;;;;;33.15;19.73;;;11.60;99.90;;;;;;6184255;23;20001;-81
2022/04/22 06:32:38;;;;;;;31.48;18.83;;;11.60;99.90;;;;;;6184420;23;20001;-81
2022/04/22 06:35:05;;;;;;;35.28;19.90;;;11.70;99.90;;;;;;6184197;23;20429;-81
2022/04/22 06:37:41;;;;;;;31.88;19.50;;;11.70;99.90;;;;;;6158031;23;20318;-81
2022/04/22 06:45:48;;;;;;;29.10;17.73;;;11.80;99.90;;;;;;6184221;23;20016;-81
2022/04/22 06:48:16;;;;;;;26.63;17.83;;;11.80;99.90;;;;;;6146495;23;20013;-81
2022/04/22 06:50:46;;;;;;;31.00;19.48;;;11.80;99.90;;;;;;6184226;23;20063;-81
2022/04/22 06:53:14;;;;;;;34.22;19.38;;;11.90;99.90;;;;;;6171995;23;20001;-81
2022/04/22 06:55:40;;;;;;;33.72;20.23;;;11.90;99.90;;;;;;6184147;23;20333;-81
2022/04/22 06:58:14;;;;;;;38.13;21.20;;;11.90;99.90;;;;;;6157806;23;20009;-81
2022/04/22 07:00:41;;;;;;;31.10;19.38;;;11.90;99.90;;;;;;6183785;23;20001;-81
2022/04/22 07:03:07;;;;;;;34.28;19.55;;;11.90;99.90;;;;;;6184147;23;20029;-81
2022/04/22 07:05:35;;;;;;;31.33;19.20;;;11.80;99.90;;;;;;6184205;23;20005;-82
2022/04/22 07:08:06;;;;;;;31.85;18.17;;;11.90;99.90;;;;;;6184013;23;20023;-82
2022/04/22 07:10:35;;;;;;;33.27;19.20;;;11.90;99.90;;;;;;6157475;23;20068;-81
2022/04/22 07:13:02;;;;;;;31.45;19.52;;;11.90;99.90;;;;;;6183690;23;20021;-81
2022/04/22 07:15:28;;;;;;;35.47;21.60;;;11.90;99.90;;;;;;6182189;23;20005;-81
2022/04/22 07:17:55;;;;;;;34.15;20.88;;;11.90;99.90;;;;;;6183798;23;20567;-81
2022/04/22 07:20:21;;;;;;;34.55;21.02;;;11.90;99.90;;;;;;6157354;23;20012;-81
2022/04/22 07:22:48;;;;;;;35.60;20.48;;;11.90;99.90;;;;;;6183678;23;20013;-81
2022/04/22 07:25:14;;;;;;;33.28;20.00;;;11.90;99.90;;;;;;6184060;23;20024;-81
2022/04/22 07:27:45;;;;;;;32.97;20.65;;;11.90;99.90;;;;;;6184056;23;20005;-81
2022/04/22 07:30:13;;;;;;;31.83;20.42;;;11.90;99.90;;;;;;6184947;23;20005;-81
2022/04/22 07:32:39;;;;;;;34.65;21.27;;;11.90;99.90;;;;;;6184961;23;20337;-81
2022/04/22 07:35:12;;;;;;;32.28;20.40;;;11.90;99.90;;;;;;6184438;23;20089;-81
2022/04/22 07:37:38;;;;;;;35.97;20.75;;;11.90;99.90;;;;;;6184803;23;20229;-81
2022/04/22 07:40:05;;;;;;;31.63;20.20;;;11.80;99.90;;;;;;6184668;23;20008;-81
2022/04/22 07:42:33;;;;;;;31.60;20.00;;;11.80;99.90;;;;;;6158471;23;20029;-81
2022/04/22 07:47:50;;;;;;;36.28;20.60;;;11.90;99.90;;;;;;6183943;23;20499;-81
2022/04/22 07:50:17;;;;;;;33.95;20.67;;;11.90;99.90;;;;;;6184119;23;20008;-81
2022/04/22 07:52:47;;;;;;;31.83;19.45;;;12.00;99.90;;;;;;6158395;23;20015;-81
2022/04/22 07:55:14;;;;;;;32.70;20.92;;;12.10;99.90;;;;;;6173099;23;20084;-81
2022/04/22 07:57:40;;;;;;;31.63;19.38;;;12.20;99.90;;;;;;6184816;23;20037;-81
2022/04/22 08:00:08;;;;;;;31.38;18.98;;;12.20;99.90;;;;;;6158159;23;20013;-81
2022/04/22 08:02:34;;;;;;;32.15;20.50;;;12.20;99.90;;;;;;6184619;23;20564;-81
2022/04/22 08:04:59;;;;;;;32.17;20.33;;;12.30;99.90;;;;;;6184271;23;19997;-81
2022/04/22 08:07:25;;;;;;;31.73;19.63;;;12.30;99.90;;;;;;6153629;23;20337;-81
2022/04/22 08:09:51;;;;;;;27.20;18.48;;;12.40;99.90;;;;;;6180468;23;20491;-81
2022/04/22 08:12:19;;;;;;;27.05;17.52;;;12.50;99.90;;;;;;6184536;23;20008;-81
2022/04/22 08:14:45;;;;;;;26.27;17.92;;;12.60;99.90;;;;;;6158386;23;20005;-81
2022/04/22 08:17:11;;;;;;;28.33;18.52;;;12.60;99.90;;;;;;6172276;23;20008;-81
2022/04/22 08:19:36;;;;;;;31.27;18.27;;;12.60;99.90;;;;;;6184448;23;20005;-81
2022/04/22 08:22:03;;;;;;;28.90;18.52;;;12.60;99.90;;;;;;6184767;23;20064;-81
2022/04/22 08:24:29;;;;;;;30.58;19.10;;;12.60;99.90;;;;;;6158721;23;20005;-81
2022/04/22 08:26:56;;;;;;;30.02;18.48;;;12.70;99.90;;;;;;6185099;23;19998;-81
2022/04/22 08:29:22;;;;;;;27.85;18.60;;;12.70;99.90;;;;;;6184859;23;20456;-80
2022/04/22 08:31:52;;;;;;;28.42;18.02;;;12.80;99.90;;;;;;6184861;23;20005;-81
2022/04/22 08:34:18;;;;;;;31.02;18.55;;;12.80;99.90;;;;;;6153407;23;20093;-81
2022/04/22 08:36:46;;;;;;;29.50;18.13;;;12.90;99.90;;;;;;6179464;23;20015;-81
2022/04/22 08:39:12;;;;;;;30.15;18.30;;;12.80;99.90;;;;;;6184906;23;20484;-81
2022/04/22 08:41:40;;;;;;;27.52;18.30;;;13.00;99.90;;;;;;6184659;23;20029;-81
2022/04/22 08:44:07;;;;;;;28.30;18.48;;;13.00;99.90;;;;;;6184891;23;20512;-81
2022/04/22 08:52:03;;;;;;;28.55;18.45;;;12.90;99.90;;;;;;6185067;23;20031;-81
2022/04/22 08:54:30;;;;;;;23.95;16.70;;;12.90;99.90;;;;;;6185004;23;20012;-80
2022/04/22 08:56:56;;;;;;;30.83;18.65;;;12.80;99.90;;;;;;6184874;23;20048;-80
2022/04/22 08:59:25;;;;;;;27.48;18.02;;;12.80;99.90;;;;;;6184317;23;20430;-80
2022/04/22 09:01:51;;;;;;;26.90;17.05;;;12.90;99.90;;;;;;6156360;23;20010;-80
2022/04/22 09:04:16;;;;;;;27.73;16.65;;;13.00;99.90;;;;;;6151681;23;20059;-80
2022/04/22 09:06:45;;;;;;;26.50;15.40;;;13.10;99.90;;;;;;6178416;23;19997;-80
2022/04/22 09:09:12;;;;;;;25.25;15.45;;;13.10;99.90;;;;;;6157270;23;19993;-80
2022/04/22 09:11:42;;;;;;;26.48;17.08;;;13.10;99.90;;;;;;6184416;23;20009;-80
2022/04/22 09:14:08;;;;;;;29.50;17.25;;;13.20;99.90;;;;;;6158117;23;20294;-80
2022/04/22 09:16:33;;;;;;;25.88;16.80;;;13.30;99.90;;;;;;6184228;23;20004;-83
2022/04/22 09:19:01;;;;;;;30.33;17.45;;;13.30;99.90;;;;;;6181949;23;20007;-82
2022/04/22 09:21:27;;;;;;;27.08;16.15;;;13.40;99.90;;;;;;6180737;23;20002;-82
2022/04/22 09:23:56;;;;;;;24.83;17.17;;;13.40;99.90;;;;;;6151332;23;20021;-82
2022/04/22 09:26:23;;;;;;;26.40;17.02;;;13.50;99.90;;;;;;6153010;23;20009;-81
2022/04/22 09:29:12;;;;;;;28.20;16.60;;;13.50;99.90;;;;;;6127314;23;20006;-82
2022/04/22 09:31:48;;;;;;;25.80;16.13;;;13.50;99.90;;;;;;6152751;23;20002;-85
2022/04/22 09:34:14;;;;;;;28.63;16.98;;;13.50;99.90;;;;;;6153006;23;20016;-84
2022/04/22 09:45:00;;;;;;;29.13;18.73;;;13.60;99.90;;;;;;6152708;23;20105;-83
2022/04/22 09:47:33;;;;;;;27.75;17.52;;;13.70;99.90;;;;;;6125994;23;20002;-84
2022/04/22 09:50:00;;;;;;;27.50;18.52;;;13.70;99.90;;;;;;6151469;23;19998;-83
2022/04/22 09:52:30;;;;;;;30.60;18.15;;;13.70;99.90;;;;;;6152996;23;20053;-84
2022/04/22 09:54:58;;;;;;;25.52;16.55;;;13.70;99.90;;;;;;6152031;23;20029;-83
2022/04/22 09:57:24;;;;;;;32.25;19.55;;;13.70;99.90;;;;;;6124882;23;20329;-83
2022/04/22 09:59:51;;;;;;;30.73;19.75;;;13.70;99.90;;;;;;6152272;23;20002;-85
2022/04/22 10:02:25;;;;;;;34.03;19.38;;;13.80;99.90;;;;;;6125638;23;20088;-83
2022/04/22 10:04:54;;;;;;;33.55;19.65;;;13.70;99.90;;;;;;6125781;23;20345;-83
2022/04/22 10:07:30;;;;;;;34.50;19.77;;;13.70;99.90;;;;;;6151872;23;20028;-84
2022/04/22 10:10:01;;;;;;;34.13;21.50;;;13.70;99.90;;;;;;6151819;23;20032;-84
2022/04/22 10:12:29;;;;;;;34.83;20.58;;;13.70;99.90;;;;;;6126490;23;20040;-83
2022/04/22 10:14:57;;;;;;;29.58;19.05;;;13.70;99.90;;;;;;6125499;23;20040;-84
2022/04/22 10:17:23;;;;;;;35.08;20.58;;;13.70;99.90;;;;;;6151769;23;20028;-84
2022/04/22 10:19:50;;;;;;;28.45;19.33;;;13.80;99.90;;;;;;6125592;23;20014;-83
2022/04/22 10:22:17;;;;;;;32.63;20.17;;;13.80;99.90;;;;;;6160594;23;20650;-82
2022/04/22 10:24:44;;;;;;;30.08;19.48;;;13.80;99.90;;;;;;6181675;23;20001;-86
2022/04/22 10:27:10;;;;;;;36.03;19.10;;;13.80;99.90;;;;;;6181736;23;20001;-82
2022/04/22 10:29:40;;;;;;;32.63;19.27;;;13.80;99.90;;;;;;6181633;23;20035;-83
2022/04/22 10:32:10;;;;;;;27.63;18.20;;;13.70;99.90;;;;;;6181276;23;20494;-83
2022/04/22 10:34:41;;;;;;;31.52;19.65;;;13.70;99.90;;;;;;6155386;23;20084;-84
2022/04/22 10:37:27;;;;;;;26.90;17.75;;;13.90;99.90;;;;;;6155375;23;20008;-85
2022/04/22 10:39:55;;;;;;;33.95;18.52;;;13.90;99.90;;;;;;6154930;23;20032;-82
2022/04/22 10:42:34;;;;;;;26.80;18.02;;;14.00;99.90;;;;;;6180960;23;20445;-84
2022/04/22 10:47:47;;;;;;;28.40;18.80;;;13.90;99.90;;;;;;6181213;23;20071;-83
2022/04/22 10:50:34;;;;;;;28.75;16.77;;;13.90;99.90;;;;;;6181391;23;20008;-84
2022/04/22 10:53:05;;;;;;;31.65;18.75;;;13.80;99.90;;;;;;6181669;23;19997;-84
2022/04/22 10:55:37;;;;;;;31.10;19.05;;;13.80;99.90;;;;;;6155212;23;20005;-84
2022/04/22 10:58:20;;;;;;;27.45;17.85;;;13.80;99.90;;;;;;6180617;23;20052;-85
2022/04/22 11:01:04;;;;;;;28.70;17.80;;;13.70;99.90;;;;;;6181269;23;20005;-83
2022/04/22 11:03:34;;;;;;;30.00;18.45;;;13.80;99.90;;;;;;6154874;23;20037;-83
2022/04/22 11:06:01;;;;;;;24.98;17.33;;;13.90;99.90;;;;;;6181289;23;20080;-83
2022/04/22 11:08:37;;;;;;;27.20;16.70;;;13.80;99.90;;;;;;6181800;23;20007;-83
2022/04/22 11:11:07;;;;;;;19.15;13.85;;;13.90;99.90;;;;;;6182384;23;20001;-83
2022/04/22 11:13:38;;;;;;;20.50;12.30;;;13.90;99.90;;;;;;6181151;23;20430;-83
2022/04/22 11:16:05;;;;;;;18.67;12.97;;;13.90;99.90;;;;;;6154328;23;20422;-82
2022/04/22 11:18:31;;;;;;;22.65;13.30;;;14.10;99.90;;;;;;6181021;23;20486;-83
2022/04/22 11:21:33;;;;;;;21.70;14.80;;;14.10;99.90;;;;;;6180103;23;20016;-81
2022/04/22 11:23:59;;;;;;;21.50;13.80;;;14.10;99.90;;;;;;6153410;23;20013;-81
2022/04/22 11:26:26;;;;;;;20.52;13.93;;;14.00;99.90;;;;;;6184056;23;20005;-81
2022/04/22 11:28:52;;;;;;;23.25;14.85;;;14.10;99.90;;;;;;6183899;23;20070;-81
2022/04/22 11:31:25;;;;;;;24.83;15.60;;;14.10;99.90;;;;;;6183360;23;20396;-77
2022/04/22 11:33:57;;;;;;;27.27;17.48;;;14.10;99.90;;;;;;6181703;23;20016;-77
2022/04/22 11:36:24;;;;;;;26.17;16.95;;;14.20;99.90;;;;;;6153821;23;20013;-77
2022/04/22 11:38:54;;;;;;;27.60;17.08;;;14.10;99.90;;;;;;6179372;23;20005;-77
2022/04/22 11:41:21;;;;;;;31.95;17.58;;;14.20;99.90;;;;;;6179030;23;20429;-77
2022/04/22 11:43:48;;;;;;;31.80;18.50;;;14.20;99.90;;;;;;6179463;23;20035;-77
2022/04/22 11:46:18;;;;;;;27.00;17.70;;;14.20;99.90;;;;;;6179208;23;19997;-77
2022/04/22 11:48:48;;;;;;;27.70;19.17;;;14.10;99.90;;;;;;6179130;23;20001;-77
2022/04/22 11:51:16;;;;;;;28.60;18.60;;;14.10;99.90;;;;;;6179253;23;20008;-77
2022/04/22 11:53:47;;;;;;;24.77;16.48;;;14.10;99.90;;;;;;6180269;23;20468;-77
2022/04/22 11:56:17;;;;;;;22.98;15.25;;;14.10;99.90;;;;;;6179911;23;20055;-77
2022/04/22 11:58:43;;;;;;;23.95;14.38;;;14.10;99.90;;;;;;6179337;23;20338;-77
2022/04/22 12:06:39;;;;;;;27.27;17.10;;;14.00;99.90;;;;;;6179656;23;20471;-77
2022/04/22 12:09:06;;;;;;;23.33;15.98;;;14.00;99.90;;;;;;6179396;23;20005;-77
2022/04/22 12:11:43;;;;;;;25.17;16.10;;;14.00;99.90;;;;;;6180035;23;20080;-77
2022/04/22 12:14:10;;;;;;;21.90;15.25;;;14.00;99.90;;;;;;6153745;23;20048;-77
2022/04/22 12:16:38;;;;;;;27.55;17.30;;;14.00;99.90;;;;;;6180408;23;20008;-77
2022/04/22 12:19:08;;;;;;;24.45;16.48;;;14.00;99.90;;;;;;6154864;23;20005;-77
2022/04/22 12:21:37;;;;;;;25.45;16.98;;;13.90;99.90;;;;;;6153891;23;20005;-77
2022/04/22 12:24:03;;;;;;;26.52;16.55;;;14.00;99.90;;;;;;6184205;23;20001;-78
2022/04/22 12:26:36;;;;;;;26.92;17.65;;;14.00;99.90;;;;;;6157852;23;20008;-78
2022/04/22 12:29:12;;;;;;;28.60;17.02;;;14.00;99.90;;;;;;6184934;23;20365;-78
2022/04/22 12:31:39;;;;;;;28.50;18.80;;;14.00;99.90;;;;;;6184577;23;20001;-77
2022/04/22 12:34:11;;;;;;;32.33;19.88;;;13.90;99.90;;;;;;6184369;23;20447;-77
2022/04/22 12:36:52;;;;;;;31.45;19.77;;;13.90;99.90;;;;;;6184573;23;20052;-77
2022/04/22 12:39:33;;;;;;;25.70;17.55;;;13.90;99.90;;;;;;6184301;23;20068;-76
2022/04/22 12:42:03;;;;;;;27.40;18.17;;;13.90;99.90;;;;;;6182871;23;20012;-76
2022/04/22 12:44:29;;;;;;;27.40;17.52;;;13.90;99.90;;;;;;6182618;23;20054;-76
2022/04/22 12:52:46;;;;;;;29.10;17.58;;;13.90;99.90;;;;;;6137559;23;20002;-76
2022/04/22 12:55:12;;;;;;;26.27;16.48;;;13.90;99.90;;;;;;6156263;23;19994;-79
2022/04/22 12:57:41;;;;;;;23.38;15.73;;;14.00;99.90;;;;;;6157733;23;20075;-80
2022/04/22 13:00:33;;;;;;;21.92;15.07;;;13.90;99.90;;;;;;6185223;23;20004;-79
2022/04/22 13:03:03;;;;;;;24.73;14.60;;;13.80;99.90;;;;;;6179679;23;20002;-80
2022/04/22 13:05:32;;;;;;;24.15;14.65;;;13.80;99.90;;;;;;6185108;23;20306;-79
2022/04/22 13:08:09;;;;;;;21.02;13.48;;;13.80;99.90;;;;;;6158987;23;20438;-79
2022/04/22 13:10:35;;;;;;;26.33;14.55;;;13.80;99.90;;;;;;6158781;23;20063;-80
2022/04/22 13:13:00;;;;;;;21.38;14.63;;;13.80;99.90;;;;;;6184950;23;20005;-79
2022/04/22 13:15:26;;;;;;;20.95;14.35;;;13.80;99.90;;;;;;6185165;23;20110;-79
2022/04/22 13:17:53;;;;;;;19.13;13.65;;;13.90;99.90;;;;;;6185283;23;20005;-79
2022/04/22 13:20:20;;;;;;;19.80;14.15;;;13.80;99.90;;;;;;6185086;23;20008;-80
2022/04/22 13:22:48;;;;;;;20.05;13.35;;;13.80;99.90;;;;;;6158641;23;20024;-79
2022/04/22 13:25:17;;;;;;;22.33;13.55;;;13.80;99.90;;;;;;6158706;23;20433;-79
2022/04/22 13:27:44;;;;;;;19.40;13.63;;;13.90;99.90;;;;;;6185061;23;20001;-80
2022/04/22 13:30:12;;;;;;;22.73;14.88;;;13.90;99.90;;;;;;6184872;23;19997;-79
2022/04/22 13:32:38;;;;;;;20.27;13.18;;;13.90;99.90;;;;;;6185193;23;20033;-79
2022/04/22 13:35:05;;;;;;;22.83;13.70;;;14.00;99.90;;;;;;6185025;23;20008;-79